Time;durP1;ratioP1;P1;durP2;ratioP2;P2;SDS_P1;SDS_P2;PMS_P1;PMS_P2;Temp;Humidity;BMP_temperature;BMP_pressure;BME280_temperature;BME280_humidity;BME280_pressure;Samples;Min_cycle;Max_cycle;Signal;HPM_P1;HPM_P2
2023/07/27 00:00:43;;;;;;;2.63;2.35;;;18.30;92.90;;;;;;6184141;23;20005;-77
2023/07/27 00:03:08;;;;;;;3.00;2.70;;;18.30;93.10;;;;;;6186229;23;20066;-77
2023/07/27 00:05:34;;;;;;;7.40;3.13;;;18.30;93.10;;;;;;6213022;23;19997;-77
2023/07/27 00:07:59;;;;;;;3.83;2.70;;;18.30;93.20;;;;;;6186425;23;20392;-78
2023/07/27 00:10:25;;;;;;;3.38;2.40;;;18.30;93.10;;;;;;6186075;23;20335;-77
2023/07/27 00:12:51;;;;;;;4.72;2.97;;;18.30;93.10;;;;;;6212416;23;20076;-77
2023/07/27 00:15:17;;;;;;;3.58;2.72;;;18.30;93.10;;;;;;6212779;23;20055;-77
2023/07/27 00:17:45;;;;;;;3.47;2.60;;;18.30;93.10;;;;;;6213039;23;20005;-77
2023/07/27 00:20:11;;;;;;;3.85;3.33;;;18.30;93.20;;;;;;6212465;23;20436;-77
2023/07/27 00:22:36;;;;;;;5.53;2.92;;;18.30;93.40;;;;;;6185954;23;20039;-77
2023/07/27 00:25:02;;;;;;;4.00;3.08;;;18.30;93.60;;;;;;6211731;23;20059;-78
2023/07/27 00:27:28;;;;;;;4.35;3.17;;;18.30;93.50;;;;;;6211547;23;19997;-78
2023/07/27 00:29:53;;;;;;;4.53;2.78;;;18.30;93.60;;;;;;6184784;23;20076;-76
2023/07/27 00:32:19;;;;;;;4.80;2.50;;;18.30;93.60;;;;;;6185220;23;20039;-77
2023/07/27 00:34:44;;;;;;;4.40;3.28;;;18.30;93.50;;;;;;6212579;23;20032;-77
2023/07/27 00:37:12;;;;;;;3.28;2.80;;;18.30;93.50;;;;;;6212698;23;20510;-77
2023/07/27 00:39:37;;;;;;;4.90;3.38;;;18.30;93.40;;;;;;6186071;23;20008;-78
2023/07/27 00:42:04;;;;;;;5.57;3.67;;;18.30;93.40;;;;;;6212209;23;20364;-78
2023/07/27 00:44:29;;;;;;;5.78;4.20;;;18.30;93.30;;;;;;6185898;23;20227;-76
2023/07/27 00:46:55;;;;;;;4.40;3.70;;;18.30;93.20;;;;;;6212679;23;20000;-77
2023/07/27 00:49:21;;;;;;;7.75;4.82;;;18.30;93.10;;;;;;6212122;23;20482;-75
2023/07/27 00:51:47;;;;;;;7.68;4.85;;;18.20;93.20;;;;;;6212511;23;20001;-77
2023/07/27 00:54:14;;;;;;;6.00;4.35;;;18.20;93.30;;;;;;6211976;23;20008;-76
2023/07/27 00:56:40;;;;;;;5.25;4.75;;;18.20;93.80;;;;;;6211840;23;20004;-77
2023/07/27 00:59:06;;;;;;;5.85;4.93;;;18.20;93.70;;;;;;6212241;23;20016;-76
2023/07/27 01:01:32;;;;;;;5.45;4.93;;;18.20;94.00;;;;;;6212720;23;20000;-77
2023/07/27 01:03:58;;;;;;;6.15;4.78;;;18.20;94.20;;;;;;6211892;23;20024;-77
2023/07/27 01:06:24;;;;;;;7.15;4.78;;;18.10;94.30;;;;;;6211533;23;20012;-76
2023/07/27 01:08:51;;;;;;;5.45;3.92;;;18.10;94.50;;;;;;6212187;23;20016;-77
2023/07/27 01:11:46;;;;;;;5.38;4.68;;;18.10;94.80;;;;;;6185139;23;20032;-77
2023/07/27 01:14:36;;;;;;;4.90;4.40;;;18.00;95.00;;;;;;6212499;23;20009;-77
2023/07/27 01:17:20;;;;;;;7.43;4.95;;;18.00;95.20;;;;;;6212003;23;20001;-76
2023/07/27 01:20:04;;;;;;;;;;;17.90;95.40;;;;;;6212868;23;20067;-77
2023/07/27 01:22:33;;;;;;;5.63;4.55;;;17.90;95.20;;;;;;6212336;23;19999;-77
2023/07/27 01:25:06;;;;;;;6.40;5.13;;;17.80;95.50;;;;;;6211295;23;20001;-77
2023/07/27 01:27:54;;;;;;;5.30;4.53;;;17.80;95.90;;;;;;6212271;23;20001;-77
2023/07/27 01:30:44;;;;;;;6.35;5.07;;;17.80;96.20;;;;;;6211985;23;20004;-77
2023/07/27 01:33:12;;;;;;;6.40;5.00;;;17.80;96.30;;;;;;6212349;23;20059;-77
2023/07/27 01:35:49;;;;;;;7.38;5.00;;;17.70;96.40;;;;;;6212178;23;20447;-77
2023/07/27 01:38:14;;;;;;;5.90;4.75;;;17.70;96.80;;;;;;6211981;23;19999;-77
2023/07/27 01:40:42;;;;;;;6.15;5.10;;;17.70;96.80;;;;;;6211544;23;20061;-77
2023/07/27 01:43:10;;;;;;;5.85;4.60;;;17.60;97.00;;;;;;6211921;23;20146;-77
2023/07/27 01:45:36;;;;;;;8.15;6.30;;;17.60;97.20;;;;;;6212096;23;20004;-77
2023/07/27 01:48:04;;;;;;;5.60;5.10;;;17.60;97.40;;;;;;6212003;23;20457;-78
2023/07/27 01:50:31;;;;;;;5.53;4.88;;;17.60;97.50;;;;;;6212343;23;20329;-77
2023/07/27 01:52:58;;;;;;;6.95;5.10;;;17.50;97.70;;;;;;6189695;23;20031;-77
2023/07/27 01:55:24;;;;;;;5.63;5.05;;;17.50;97.80;;;;;;6211987;23;20321;-78
2023/07/27 01:57:50;;;;;;;6.10;5.20;;;17.50;98.00;;;;;;6210252;23;20007;-78
2023/07/27 02:00:16;;;;;;;8.45;4.95;;;17.50;98.20;;;;;;6211763;23;20086;-77
2023/07/27 02:02:44;;;;;;;6.20;5.10;;;17.40;98.30;;;;;;6212158;23;20000;-77
2023/07/27 02:05:10;;;;;;;8.70;5.40;;;17.40;98.50;;;;;;6210449;23;20051;-77
2023/07/27 02:07:35;;;;;;;6.65;5.13;;;17.40;99.00;;;;;;6209729;23;20008;-77
2023/07/27 02:10:01;;;;;;;6.65;5.30;;;17.40;98.90;;;;;;6211893;23;20438;-77
2023/07/27 02:12:32;;;;;;;8.40;5.93;;;17.40;99.00;;;;;;6211974;23;20007;-77
2023/07/27 02:15:04;;;;;;;6.30;5.03;;;17.30;99.20;;;;;;6212019;23;20419;-77
2023/07/27 02:17:41;;;;;;;6.93;5.40;;;17.30;99.40;;;;;;6210295;23;20335;-78
2023/07/27 02:20:12;;;;;;;5.43;4.88;;;17.30;99.50;;;;;;6211462;23;20005;-77
2023/07/27 02:22:40;;;;;;;7.38;5.22;;;17.30;99.70;;;;;;6211280;23;20051;-77
2023/07/27 02:25:06;;;;;;;6.05;5.07;;;17.20;99.80;;;;;;6211547;23;20015;-78
2023/07/27 02:27:32;;;;;;;6.38;5.13;;;17.20;99.90;;;;;;6211967;23;20066;-78
2023/07/27 02:29:57;;;;;;;8.27;7.38;;;17.10;99.90;;;;;;6211588;23;20013;-78
2023/07/27 02:32:23;;;;;;;10.48;6.60;;;17.20;99.90;;;;;;6211614;23;20027;-78
2023/07/27 02:34:49;;;;;;;8.18;6.47;;;17.20;99.90;;;;;;6211558;23;20072;-78
2023/07/27 02:37:14;;;;;;;6.90;6.18;;;17.20;99.90;;;;;;6209375;23;20487;-78
2023/07/27 02:39:40;;;;;;;10.45;6.85;;;17.20;99.90;;;;;;6211707;23;20032;-78
2023/07/27 02:42:05;;;;;;;9.68;8.23;;;17.10;99.90;;;;;;6210082;23;20040;-78
2023/07/27 02:44:31;;;;;;;9.45;7.35;;;17.10;99.90;;;;;;6212085;23;20001;-77
2023/07/27 02:46:56;;;;;;;10.73;8.38;;;17.10;99.90;;;;;;6211768;23;20071;-78
2023/07/27 02:49:22;;;;;;;8.10;7.30;;;17.10;99.90;;;;;;6209935;23;20009;-78
2023/07/27 02:51:48;;;;;;;9.70;8.65;;;17.10;99.90;;;;;;6211045;23;20004;-77
2023/07/27 02:54:13;;;;;;;7.95;7.18;;;17.10;99.90;;;;;;6209681;23;20055;-77
2023/07/27 02:56:39;;;;;;;10.48;8.77;;;17.00;99.90;;;;;;6211561;23;20000;-77
2023/07/27 02:59:04;;;;;;;10.23;8.95;;;17.00;99.90;;;;;;6211213;23;20009;-78
2023/07/27 03:01:30;;;;;;;14.82;11.90;;;17.00;99.90;;;;;;6211794;23;20009;-77
2023/07/27 03:03:55;;;;;;;10.30;8.32;;;17.00;99.90;;;;;;6211525;23;20423;-77
2023/07/27 03:06:21;;;;;;;12.25;9.88;;;16.90;99.90;;;;;;6210919;23;20310;-78
2023/07/27 03:08:47;;;;;;;13.45;10.90;;;17.00;99.90;;;;;;6211032;23;20403;-78
2023/07/27 03:11:12;;;;;;;10.73;9.63;;;17.00;99.90;;;;;;6211609;23;20145;-77
2023/07/27 03:13:38;;;;;;;12.27;9.88;;;16.90;99.90;;;;;;6211439;23;20000;-78
2023/07/27 03:16:04;;;;;;;11.55;10.07;;;16.90;99.90;;;;;;6211742;23;20034;-78
2023/07/27 03:18:30;;;;;;;12.95;11.00;;;16.90;99.90;;;;;;6211386;23;20004;-78
2023/07/27 03:20:56;;;;;;;15.25;11.02;;;16.90;99.90;;;;;;6210879;23;20001;-78
2023/07/27 03:23:22;;;;;;;13.75;11.88;;;16.80;99.90;;;;;;6211208;23;20322;-77
2023/07/27 03:25:47;;;;;;;16.35;10.48;;;16.80;99.90;;;;;;6211091;23;20067;-78
2023/07/27 03:28:13;;;;;;;12.90;11.60;;;16.80;99.90;;;;;;6211626;23;20051;-77
2023/07/27 03:30:39;;;;;;;13.80;11.70;;;16.80;99.90;;;;;;6213332;23;20009;-77
2023/07/27 03:33:06;;;;;;;15.48;12.73;;;16.70;99.90;;;;;;6213260;23;19997;-76
2023/07/27 03:35:33;;;;;;;13.35;11.95;;;16.70;99.90;;;;;;6212409;23;20024;-78
2023/07/27 03:37:58;;;;;;;15.15;13.27;;;16.70;99.90;;;;;;6212198;23;20464;-78
2023/07/27 03:40:24;;;;;;;15.20;13.05;;;16.70;99.90;;;;;;6211014;23;20108;-77
2023/07/27 03:42:50;;;;;;;15.38;13.45;;;16.70;99.90;;;;;;6212745;23;20445;-77
2023/07/27 03:45:16;;;;;;;15.93;14.27;;;16.60;99.90;;;;;;6211635;23;20334;-77
2023/07/27 03:47:43;;;;;;;19.02;14.20;;;16.60;99.90;;;;;;6213369;23;20481;-76
2023/07/27 03:50:09;;;;;;;17.83;14.88;;;16.60;99.90;;;;;;6212547;23;20488;-77
2023/07/27 03:52:34;;;;;;;14.68;12.95;;;16.60;99.90;;;;;;6213039;23;20036;-78
2023/07/27 03:55:00;;;;;;;17.15;15.35;;;16.60;99.90;;;;;;6213110;23;20008;-77
2023/07/27 03:57:25;;;;;;;18.73;14.95;;;16.60;99.90;;;;;;6212845;23;20011;-76
2023/07/27 03:59:58;;;;;;;18.15;15.40;;;16.50;99.90;;;;;;6213414;23;19997;-77
2023/07/27 04:02:26;;;;;;;14.38;12.85;;;16.50;99.90;;;;;;6185472;23;20364;-77
2023/07/27 04:04:51;;;;;;;19.63;14.70;;;16.50;99.90;;;;;;6212685;23;20564;-77
2023/07/27 04:07:18;;;;;;;20.05;15.52;;;16.50;99.90;;;;;;6213009;23;20008;-78
2023/07/27 04:09:43;;;;;;;15.50;13.30;;;16.50;99.90;;;;;;6213019;23;20414;-77
2023/07/27 04:12:09;;;;;;;15.10;13.45;;;16.50;99.90;;;;;;6213036;23;20076;-78
2023/07/27 04:14:35;;;;;;;20.13;15.15;;;16.50;99.90;;;;;;6212876;23;20028;-77
2023/07/27 04:17:01;;;;;;;15.35;13.68;;;16.50;99.90;;;;;;6212752;23;19997;-78
2023/07/27 04:19:27;;;;;;;15.55;13.75;;;16.50;99.90;;;;;;6212464;23;20008;-78
2023/07/27 04:21:52;;;;;;;12.88;11.52;;;16.50;99.90;;;;;;6212641;23;20020;-77
2023/07/27 04:24:18;;;;;;;14.07;12.15;;;16.50;99.90;;;;;;6213174;23;20005;-77
2023/07/27 04:26:43;;;;;;;12.98;11.25;;;16.40;99.90;;;;;;6212893;23;20470;-76
2023/07/27 04:29:09;;;;;;;14.45;11.50;;;16.50;99.90;;;;;;6212778;23;20055;-78
2023/07/27 04:31:34;;;;;;;13.73;10.00;;;16.40;99.90;;;;;;6213162;23;20378;-78
2023/07/27 04:34:00;;;;;;;11.23;9.70;;;16.40;99.90;;;;;;6212071;23;20000;-77
2023/07/27 04:36:25;;;;;;;13.68;10.75;;;16.50;99.90;;;;;;6212515;23;20005;-77
2023/07/27 04:38:51;;;;;;;12.02;10.00;;;16.40;99.90;;;;;;6212882;23;20434;-77
2023/07/27 04:41:17;;;;;;;10.90;8.90;;;16.40;99.90;;;;;;6212661;23;20015;-77
2023/07/27 04:43:43;;;;;;;13.40;9.40;;;16.40;99.90;;;;;;6212997;23;20338;-78
2023/07/27 04:46:11;;;;;;;11.30;10.10;;;16.40;99.90;;;;;;6212554;23;20047;-77
2023/07/27 04:48:37;;;;;;;8.70;7.72;;;16.40;99.90;;;;;;6211886;23;20355;-77
2023/07/27 04:51:02;;;;;;;9.98;8.68;;;16.40;99.90;;;;;;6185699;23;20087;-77
2023/07/27 04:53:28;;;;;;;10.02;8.63;;;16.40;99.90;;;;;;6197322;23;20453;-78
2023/07/27 04:55:54;;;;;;;10.93;8.55;;;16.40;99.90;;;;;;6212527;23;20000;-78
2023/07/27 04:58:19;;;;;;;11.63;8.85;;;16.50;99.90;;;;;;6212324;23;20001;-78
2023/07/27 05:00:50;;;;;;;11.30;9.30;;;16.50;99.90;;;;;;6212320;23;20005;-78
2023/07/27 05:03:16;;;;;;;8.70;7.63;;;16.40;99.90;;;;;;6210448;23;20009;-78
2023/07/27 05:05:43;;;;;;;10.73;8.50;;;16.50;99.90;;;;;;6212585;23;20028;-78
2023/07/27 05:08:08;;;;;;;8.27;6.93;;;16.50;99.90;;;;;;6212332;23;20080;-78
2023/07/27 05:10:34;;;;;;;9.40;6.95;;;16.50;99.90;;;;;;6210704;23;20040;-76
2023/07/27 05:12:59;;;;;;;9.20;6.43;;;16.50;99.90;;;;;;6212241;23;20005;-77
2023/07/27 05:15:25;;;;;;;8.25;5.93;;;16.60;99.90;;;;;;6212087;23;20009;-77
2023/07/27 05:17:50;;;;;;;9.60;6.35;;;16.60;99.90;;;;;;6210096;23;20058;-77
2023/07/27 05:20:16;;;;;;;7.18;5.68;;;16.60;99.90;;;;;;6212161;23;20000;-77
2023/07/27 05:22:42;;;;;;;8.40;6.22;;;16.60;99.90;;;;;;6210634;23;20062;-78
2023/07/27 05:25:10;;;;;;;8.07;5.32;;;16.60;99.90;;;;;;6212139;23;20326;-77
2023/07/27 05:27:36;;;;;;;6.57;5.97;;;16.70;99.90;;;;;;6212241;23;20330;-77
2023/07/27 05:30:02;;;;;;;10.15;6.00;;;16.70;99.90;;;;;;6210550;23;20005;-77
2023/07/27 05:32:28;;;;;;;6.28;5.35;;;16.70;99.90;;;;;;6210476;23;20004;-77
2023/07/27 05:34:54;;;;;;;6.45;5.55;;;16.80;99.90;;;;;;6210481;23;20000;-77
2023/07/27 05:37:20;;;;;;;7.03;5.93;;;16.70;99.90;;;;;;6212089;23;19996;-78
2023/07/27 05:39:46;;;;;;;6.60;5.55;;;16.80;99.90;;;;;;6210514;23;20481;-78
2023/07/27 05:42:11;;;;;;;5.40;4.68;;;16.70;99.90;;;;;;6212075;23;20032;-76
2023/07/27 05:44:37;;;;;;;5.90;5.07;;;16.80;99.90;;;;;;6212113;23;20411;-78
2023/07/27 05:47:03;;;;;;;4.85;4.30;;;16.80;99.90;;;;;;6209945;23;20087;-77
2023/07/27 05:49:29;;;;;;;5.10;4.18;;;16.80;99.90;;;;;;6235609;23;20526;-77
2023/07/27 05:51:55;;;;;;;4.72;4.20;;;16.80;99.90;;;;;;6210005;23;20047;-78
2023/07/27 05:54:21;;;;;;;5.55;3.85;;;16.90;99.90;;;;;;6211629;23;20092;-77
2023/07/27 05:56:46;;;;;;;6.00;4.43;;;16.80;99.90;;;;;;6211879;23;20074;-78
2023/07/27 05:59:12;;;;;;;5.88;3.72;;;16.80;99.90;;;;;;6211895;23;20417;-77
2023/07/27 06:01:37;;;;;;;5.18;3.60;;;16.80;99.90;;;;;;6185043;23;20335;-76
2023/07/27 06:04:03;;;;;;;4.22;3.72;;;16.90;99.90;;;;;;6211692;23;20031;-79
2023/07/27 06:06:29;;;;;;;3.20;2.90;;;16.90;99.90;;;;;;6212245;23;20381;-82
2023/07/27 06:08:54;;;;;;;3.25;2.95;;;16.90;99.90;;;;;;6211560;23;20339;-82
2023/07/27 06:11:20;;;;;;;4.53;3.30;;;16.90;99.90;;;;;;6211858;23;20005;-82
2023/07/27 06:13:46;;;;;;;5.47;2.97;;;16.90;99.90;;;;;;6211800;23;20024;-81
2023/07/27 06:16:12;;;;;;;3.42;3.00;;;17.00;99.90;;;;;;6211424;23;20525;-81
2023/07/27 06:18:37;;;;;;;3.85;3.15;;;17.00;99.90;;;;;;6185109;23;20032;-82
2023/07/27 06:21:03;;;;;;;3.35;3.05;;;17.10;99.90;;;;;;6211765;23;20004;-82
2023/07/27 06:23:28;;;;;;;3.75;3.45;;;17.10;99.90;;;;;;6211934;23;20005;-82
2023/07/27 06:25:54;;;;;;;3.50;3.20;;;17.10;99.90;;;;;;6211891;23;20051;-81
2023/07/27 06:28:20;;;;;;;4.28;3.20;;;17.10;99.90;;;;;;6211072;23;20017;-83
2023/07/27 06:30:45;;;;;;;3.20;2.63;;;17.10;99.90;;;;;;6211767;23;20001;-82
2023/07/27 06:33:11;;;;;;;3.25;2.78;;;17.20;99.90;;;;;;6185018;23;20005;-82
2023/07/27 06:35:37;;;;;;;2.92;2.65;;;17.20;99.90;;;;;;6211590;23;20012;-82
2023/07/27 06:38:02;;;;;;;3.17;2.80;;;17.20;99.90;;;;;;6211836;23;20422;-81
2023/07/27 06:40:28;;;;;;;3.17;2.65;;;17.30;99.90;;;;;;6212005;23;20008;-81
2023/07/27 06:42:53;;;;;;;3.60;3.17;;;17.30;99.90;;;;;;6211172;23;20013;-81
2023/07/27 06:45:20;;;;;;;3.03;2.70;;;17.40;99.90;;;;;;6212082;23;20058;-80
2023/07/27 06:47:46;;;;;;;2.40;2.20;;;17.40;99.90;;;;;;6211560;23;20005;-80
2023/07/27 06:50:11;;;;;;;4.22;2.85;;;17.40;99.90;;;;;;6211704;23;20015;-81
2023/07/27 06:52:37;;;;;;;2.40;2.05;;;17.40;99.90;;;;;;6211312;23;20740;-81
2023/07/27 06:55:03;;;;;;;2.63;2.28;;;17.40;99.90;;;;;;6211991;23;20032;-81
2023/07/27 06:57:29;;;;;;;2.63;2.40;;;17.50;99.90;;;;;;6211293;23;20051;-81
2023/07/27 06:59:54;;;;;;;2.63;2.42;;;17.50;99.90;;;;;;6211549;23;20009;-81
2023/07/27 07:02:20;;;;;;;3.97;2.42;;;17.50;99.90;;;;;;6212164;23;20035;-81
2023/07/27 07:04:46;;;;;;;3.75;2.70;;;17.50;99.90;;;;;;6213840;23;20043;-81
2023/07/27 07:07:13;;;;;;;2.78;2.45;;;17.50;99.90;;;;;;6210323;23;20009;-81
2023/07/27 07:09:38;;;;;;;2.08;1.90;;;17.60;99.90;;;;;;6211198;23;20434;-81
2023/07/27 07:12:05;;;;;;;2.13;1.77;;;17.60;99.90;;;;;;6207406;23;20016;-81
2023/07/27 07:14:31;;;;;;;2.17;1.95;;;17.70;99.90;;;;;;6186624;23;20000;-82
2023/07/27 07:16:57;;;;;;;3.20;1.88;;;17.70;99.90;;;;;;6212801;23;19996;-81
2023/07/27 07:19:23;;;;;;;2.85;1.80;;;17.80;99.90;;;;;;6213120;23;20331;-81
2023/07/27 07:21:48;;;;;;;2.30;2.10;;;17.90;99.90;;;;;;6186729;23;20008;-79
2023/07/27 07:24:14;;;;;;;2.47;1.67;;;17.80;99.90;;;;;;6211865;23;20001;-81
2023/07/27 07:26:40;;;;;;;2.13;1.70;;;17.90;99.90;;;;;;6185870;23;20009;-81
2023/07/27 07:29:05;;;;;;;1.45;1.17;;;17.90;99.90;;;;;;6213362;23;20013;-81
2023/07/27 07:31:31;;;;;;;2.30;1.83;;;18.00;99.90;;;;;;6213775;23;19996;-81
2023/07/27 07:33:57;;;;;;;1.90;1.60;;;18.00;99.90;;;;;;6212262;23;20015;-81
2023/07/27 07:36:24;;;;;;;1.67;1.58;;;18.10;99.90;;;;;;6212415;23;20000;-81
2023/07/27 07:38:49;;;;;;;2.30;1.45;;;18.20;99.90;;;;;;6213374;23;20036;-82
2023/07/27 07:41:15;;;;;;;1.55;1.45;;;18.20;99.90;;;;;;6187178;23;20005;-82
2023/07/27 07:43:40;;;;;;;2.30;2.10;;;18.30;99.90;;;;;;6214362;23;20004;-83
2023/07/27 07:46:10;;;;;;;1.73;1.48;;;18.30;99.90;;;;;;6212326;23;19996;-82
2023/07/27 07:48:36;;;;;;;2.22;1.80;;;18.40;99.90;;;;;;6187160;23;20000;-82
2023/07/27 07:51:01;;;;;;;2.15;1.95;;;18.40;99.90;;;;;;6213221;23;20007;-82
2023/07/27 07:53:27;;;;;;;2.92;2.03;;;18.50;99.90;;;;;;6197364;23;20004;-83
2023/07/27 07:55:52;;;;;;;1.92;1.83;;;18.60;99.90;;;;;;6210131;23;20079;-83
2023/07/27 07:58:18;;;;;;;2.35;2.15;;;18.60;99.90;;;;;;6212319;23;20032;-83
2023/07/27 08:00:43;;;;;;;1.75;1.65;;;18.70;99.90;;;;;;6211319;23;20008;-82
2023/07/27 08:03:09;;;;;;;1.77;1.50;;;18.70;99.90;;;;;;6212486;23;20446;-82
2023/07/27 08:05:35;;;;;;;1.95;1.85;;;18.80;99.90;;;;;;6213432;23;20004;-82
2023/07/27 08:08:01;;;;;;;1.63;1.52;;;18.90;99.90;;;;;;6210272;23;20063;-82
2023/07/27 08:10:26;;;;;;;1.52;1.40;;;18.90;99.90;;;;;;6213305;23;20000;-82
2023/07/27 08:12:53;;;;;;;2.05;1.70;;;18.90;99.90;;;;;;6213046;23;20079;-83
2023/07/27 08:15:19;;;;;;;1.98;1.80;;;19.00;99.90;;;;;;6212710;23;20001;-82
2023/07/27 08:17:47;;;;;;;1.77;1.38;;;19.00;99.90;;;;;;6210655;23;20482;-82
2023/07/27 08:20:13;;;;;;;2.30;1.58;;;19.10;99.90;;;;;;6213261;23;20000;-82
2023/07/27 08:22:38;;;;;;;1.45;1.35;;;19.10;99.90;;;;;;6212722;23;20071;-83
2023/07/27 08:25:05;;;;;;;1.60;1.50;;;19.10;99.90;;;;;;6211987;23;20407;-82
2023/07/27 08:27:36;;;;;;;4.28;1.30;;;19.20;99.90;;;;;;6211881;23;20009;-82
2023/07/27 08:30:03;;;;;;;1.75;1.58;;;19.20;99.90;;;;;;6209125;23;20366;-82
2023/07/27 08:32:28;;;;;;;2.03;1.50;;;19.20;99.90;;;;;;6212660;23;19997;-83
2023/07/27 08:34:54;;;;;;;1.65;1.50;;;19.30;99.90;;;;;;6211447;23;20004;-82
2023/07/27 08:37:19;;;;;;;1.67;1.58;;;19.30;99.90;;;;;;6211564;23;20000;-83
2023/07/27 08:39:45;;;;;;;2.40;1.58;;;19.40;99.90;;;;;;6210566;23;20135;-82
2023/07/27 08:42:17;;;;;;;2.35;1.75;;;19.40;99.90;;;;;;6212157;23;20004;-83
2023/07/27 08:44:44;;;;;;;1.30;1.20;;;19.40;99.90;;;;;;6213160;23;20001;-83
2023/07/27 08:47:10;;;;;;;1.80;1.45;;;19.40;99.90;;;;;;6212283;23;20011;-82
2023/07/27 08:49:37;;;;;;;3.28;1.83;;;19.40;99.90;;;;;;6212974;23;20331;-82
2023/07/27 08:52:03;;;;;;;2.00;1.73;;;19.50;99.90;;;;;;6212087;23;20001;-83
2023/07/27 08:54:29;;;;;;;2.25;2.05;;;19.50;99.90;;;;;;6212588;23;20032;-82
2023/07/27 08:56:55;;;;;;;2.55;1.70;;;19.60;99.90;;;;;;6212374;23;20055;-82
2023/07/27 08:59:21;;;;;;;2.03;1.50;;;19.80;99.90;;;;;;6212455;23;20012;-82
2023/07/27 09:01:46;;;;;;;1.85;1.58;;;19.90;99.90;;;;;;6211641;23;20716;-82
2023/07/27 09:04:12;;;;;;;1.52;1.42;;;19.90;99.90;;;;;;6212978;23;20008;-82
2023/07/27 09:06:45;;;;;;;3.13;2.20;;;19.90;99.90;;;;;;6212605;23;20000;-82
2023/07/27 09:09:16;;;;;;;2.08;1.90;;;19.90;99.90;;;;;;6210555;23;20005;-82
2023/07/27 09:11:42;;;;;;;2.25;1.67;;;19.90;99.90;;;;;;6184843;23;20028;-82
2023/07/27 09:14:09;;;;;;;2.85;1.77;;;19.90;99.90;;;;;;6211833;23;19997;-83
2023/07/27 09:16:35;;;;;;;2.20;1.27;;;19.80;99.90;;;;;;6214795;23;20299;-83
2023/07/27 09:19:01;;;;;;;2.75;2.10;;;19.80;99.90;;;;;;6216069;23;20337;-84
2023/07/27 09:21:27;;;;;;;3.42;2.25;;;19.70;99.90;;;;;;6213721;23;20035;-84
2023/07/27 09:23:58;;;;;;;4.55;2.15;;;19.70;99.90;;;;;;6210778;23;20430;-83
2023/07/27 09:26:26;;;;;;;3.10;1.63;;;19.60;99.90;;;;;;6212280;23;20000;-84
2023/07/27 09:28:53;;;;;;;1.98;1.77;;;19.60;99.90;;;;;;6212560;23;20004;-83
2023/07/27 09:31:19;;;;;;;1.83;1.70;;;19.70;99.90;;;;;;6212856;23;19997;-83
2023/07/27 09:33:44;;;;;;;4.60;2.28;;;19.70;99.90;;;;;;6212325;23;20012;-83
2023/07/27 09:36:10;;;;;;;2.70;2.15;;;19.80;99.90;;;;;;6210675;23;20005;-83
2023/07/27 09:38:36;;;;;;;2.72;2.17;;;19.80;99.90;;;;;;6211590;23;20024;-83
2023/07/27 09:41:08;;;;;;;2.55;2.20;;;19.80;99.90;;;;;;6212239;23;19997;-82
2023/07/27 09:43:40;;;;;;;3.95;2.33;;;19.90;99.90;;;;;;6212767;23;20000;-83
2023/07/27 09:46:06;;;;;;;3.78;2.60;;;19.80;99.90;;;;;;6183765;23;20015;-83
2023/07/27 09:48:32;;;;;;;3.50;3.20;;;19.90;99.90;;;;;;6185080;23;20005;-83
2023/07/27 09:51:01;;;;;;;3.63;3.33;;;19.90;99.90;;;;;;6184888;23;20028;-83
2023/07/27 09:53:31;;;;;;;3.28;3.08;;;19.90;99.90;;;;;;6211177;23;20018;-84
2023/07/27 09:55:58;;;;;;;3.78;3.40;;;20.00;99.90;;;;;;6184851;23;20096;-83
2023/07/27 09:58:25;;;;;;;5.25;4.53;;;20.00;99.90;;;;;;6210291;23;20419;-83
2023/07/27 10:00:50;;;;;;;5.38;4.93;;;20.00;99.90;;;;;;6184825;23;20031;-83
2023/07/27 10:03:16;;;;;;;5.22;4.80;;;20.00;99.90;;;;;;6185153;23;20434;-83
2023/07/27 10:05:42;;;;;;;4.22;3.83;;;20.00;99.90;;;;;;6211585;23;20050;-83
2023/07/27 10:08:08;;;;;;;5.22;4.82;;;20.00;99.90;;;;;;6182768;23;20012;-83
2023/07/27 10:10:34;;;;;;;5.07;3.83;;;20.10;99.90;;;;;;6184665;23;20084;-84
2023/07/27 10:13:30;;;;;;;5.03;3.55;;;20.10;99.90;;;;;;6210990;23;20485;-84
2023/07/27 10:15:56;;;;;;;3.17;2.83;;;20.10;99.90;;;;;;6210941;23;20395;-83
2023/07/27 10:18:29;;;;;;;5.28;4.30;;;20.20;99.90;;;;;;6210003;23;20028;-84
2023/07/27 10:20:56;;;;;;;3.33;2.95;;;20.30;99.90;;;;;;6210236;23;20001;-84
2023/07/27 10:23:29;;;;;;;4.78;3.40;;;20.40;99.90;;;;;;6184607;23;20067;-83
2023/07/27 10:25:54;;;;;;;4.22;3.85;;;20.40;99.90;;;;;;6184822;23;20001;-83
2023/07/27 10:28:41;;;;;;;5.68;5.22;;;20.40;99.90;;;;;;6185036;23;20015;-84
2023/07/27 10:31:27;;;;;;;4.18;3.88;;;20.40;99.90;;;;;;6211129;23;20015;-83
2023/07/27 10:34:11;;;;;;;4.07;3.78;;;20.30;99.90;;;;;;6184482;23;20001;-83
2023/07/27 10:36:58;;;;;;;4.55;4.22;;;20.40;99.90;;;;;;6209962;23;20032;-83
2023/07/27 10:39:47;;;;;;;4.22;3.92;;;20.40;99.90;;;;;;6211800;23;20000;-83
2023/07/27 10:42:17;;;;;;;4.45;4.15;;;20.50;99.90;;;;;;6183511;23;20004;-83
2023/07/27 10:44:57;;;;;;;3.97;3.67;;;20.50;99.90;;;;;;6212322;23;20028;-83
2023/07/27 10:47:32;;;;;;;5.20;4.70;;;20.60;99.90;;;;;;6210990;23;20001;-83
2023/07/27 10:49:59;;;;;;;5.32;4.93;;;20.60;99.90;;;;;;6184057;23;20008;-84
2023/07/27 10:52:36;;;;;;;6.50;5.25;;;20.60;99.90;;;;;;6209624;23;20059;-83
2023/07/27 10:55:03;;;;;;;5.18;4.68;;;20.60;99.90;;;;;;6212035;23;20005;-84
2023/07/27 10:57:32;;;;;;;5.60;5.10;;;20.50;99.90;;;;;;6212725;23;20007;-84
2023/07/27 10:59:58;;;;;;;5.15;4.75;;;20.50;99.90;;;;;;6212059;23;20024;-83
2023/07/27 11:02:26;;;;;;;5.45;4.95;;;20.50;99.90;;;;;;6210354;23;19997;-83
2023/07/27 11:04:52;;;;;;;5.25;4.28;;;20.50;99.90;;;;;;6210242;23;20008;-83
2023/07/27 11:07:25;;;;;;;5.20;4.82;;;20.60;99.90;;;;;;6211647;23;20000;-84
2023/07/27 11:09:50;;;;;;;4.72;4.30;;;20.60;99.90;;;;;;6211878;23;20040;-83
2023/07/27 11:12:16;;;;;;;5.13;4.72;;;20.70;99.90;;;;;;6211483;23;20008;-83
2023/07/27 11:14:42;;;;;;;4.45;4.05;;;20.70;99.90;;;;;;6210184;23;20051;-84
2023/07/27 11:17:07;;;;;;;5.00;4.60;;;20.70;99.90;;;;;;6184629;23;20001;-84
2023/07/27 11:19:33;;;;;;;5.25;4.00;;;20.80;99.90;;;;;;6185403;23;20018;-84
2023/07/27 11:22:00;;;;;;;4.82;4.25;;;20.70;99.90;;;;;;6211594;23;20423;-83
2023/07/27 11:24:25;;;;;;;4.57;4.18;;;20.60;99.90;;;;;;6211235;23;20008;-83
2023/07/27 11:26:51;;;;;;;4.57;4.18;;;20.70;99.90;;;;;;6210900;23;20079;-84
2023/07/27 11:29:17;;;;;;;4.93;4.57;;;20.70;99.90;;;;;;6209862;23;20061;-89
2023/07/27 11:32:00;;;;;;;4.28;3.97;;;20.70;99.90;;;;;;6184833;23;20005;-85
2023/07/27 11:34:28;;;;;;;4.50;4.10;;;20.80;99.90;;;;;;6183818;23;20009;-84
2023/07/27 11:36:58;;;;;;;4.20;3.83;;;20.80;99.90;;;;;;6183154;23;20001;-83
2023/07/27 11:39:25;;;;;;;4.38;4.05;;;20.80;99.90;;;;;;6211553;23;20001;-84
2023/07/27 11:41:51;;;;;;;5.63;5.13;;;20.80;99.90;;;;;;6211669;23;20370;-84
2023/07/27 11:44:19;;;;;;;4.53;4.22;;;20.80;99.90;;;;;;6211511;23;20661;-84
2023/07/27 11:46:49;;;;;;;5.03;4.45;;;20.70;99.90;;;;;;6210209;23;20135;-82
2023/07/27 11:49:15;;;;;;;5.30;4.78;;;20.70;99.90;;;;;;6210575;23;20009;-82
2023/07/27 11:51:43;;;;;;;5.15;4.65;;;20.70;99.90;;;;;;6212666;23;20004;-83
2023/07/27 11:54:09;;;;;;;4.57;4.20;;;20.80;99.90;;;;;;6205951;23;20027;-83
2023/07/27 11:56:37;;;;;;;4.47;4.18;;;20.90;99.90;;;;;;6213201;23;20071;-82
2023/07/27 11:59:05;;;;;;;4.40;4.10;;;21.00;99.90;;;;;;6211268;23;20004;-82
2023/07/27 12:01:36;;;;;;;4.20;3.80;;;21.10;99.90;;;;;;6213359;23;20048;-83
2023/07/27 12:04:05;;;;;;;4.18;3.88;;;21.10;99.90;;;;;;6212148;23;20036;-82
2023/07/27 12:06:31;;;;;;;4.05;3.70;;;21.10;99.90;;;;;;6211774;23;20048;-81
2023/07/27 12:08:57;;;;;;;4.47;4.07;;;21.20;99.90;;;;;;6207958;23;20013;-83
2023/07/27 12:11:27;;;;;;;3.67;3.42;;;21.20;99.90;;;;;;6211204;23;20009;-83
2023/07/27 12:13:52;;;;;;;4.47;3.85;;;21.30;99.90;;;;;;6210885;23;20020;-80
2023/07/27 12:16:18;;;;;;;3.55;3.25;;;21.30;99.90;;;;;;6212545;23;19997;-83
2023/07/27 12:18:45;;;;;;;3.90;3.15;;;21.20;99.90;;;;;;6212700;23;19996;-83
2023/07/27 12:21:11;;;;;;;4.85;4.45;;;21.20;99.90;;;;;;6211182;23;20004;-84
2023/07/27 12:23:37;;;;;;;5.05;4.50;;;21.30;99.90;;;;;;6211694;23;20268;-84
2023/07/27 12:26:03;;;;;;;3.97;3.67;;;21.30;99.90;;;;;;6212015;23;20050;-82
2023/07/27 12:28:31;;;;;;;5.63;3.58;;;21.20;99.90;;;;;;6212890;23;20081;-83
2023/07/27 12:30:57;;;;;;;3.90;3.58;;;21.20;99.90;;;;;;6208709;23;20001;-83
2023/07/27 12:33:25;;;;;;;3.00;2.80;;;21.30;99.90;;;;;;6212779;23;20010;-83
2023/07/27 12:35:52;;;;;;;3.78;3.47;;;21.30;99.90;;;;;;6212642;23;20427;-82
2023/07/27 12:38:18;;;;;;;2.88;2.67;;;21.40;99.90;;;;;;6211236;23;20083;-83
2023/07/27 12:40:43;;;;;;;5.72;3.22;;;21.50;99.90;;;;;;6211486;23;20465;-83
2023/07/27 12:43:09;;;;;;;3.20;2.70;;;21.60;99.90;;;;;;6209701;23;20031;-82